createdAt,value
2022-08-25T00:00:13.626Z,18.75
2022-08-25T00:02:54.898Z,18.78
2022-08-25T00:05:14.427Z,18.79
2022-08-25T00:07:44.857Z,18.75
2022-08-25T00:10:13.661Z,18.75
2022-08-25T00:12:44.184Z,18.72
2022-08-25T00:15:13.163Z,18.69
2022-08-25T00:17:42.041Z,18.65
2022-08-25T00:20:10.937Z,18.62
2022-08-25T00:22:39.733Z,18.66
2022-08-25T00:25:09.845Z,18.58
2022-08-25T00:27:38.654Z,18.52
2022-08-25T00:30:08.480Z,18.51
2022-08-25T00:32:37.909Z,18.49
2022-08-25T00:35:07.133Z,18.45
2022-08-25T00:37:37.507Z,18.43
2022-08-25T00:40:07.320Z,18.48
2022-08-25T00:42:36.457Z,18.45
2022-08-25T00:45:06.536Z,18.43
2022-08-25T00:47:36.166Z,18.39
2022-08-25T00:50:07.478Z,18.34
2022-08-25T00:52:39.011Z,18.33
2022-08-25T00:55:18.352Z,18.37
2022-08-25T00:57:48.652Z,18.29
2022-08-25T01:00:20.648Z,18.25
2022-08-25T01:02:50.792Z,18.25
2022-08-25T01:05:20.826Z,18.28
2022-08-25T01:07:51.709Z,18.23
2022-08-25T01:10:26.026Z,18.22
2022-08-25T01:12:56.851Z,18.20
2022-08-25T01:15:25.726Z,18.20
2022-08-25T01:17:55.617Z,18.20
2022-08-25T01:20:29.361Z,18.19
2022-08-25T01:22:56.609Z,18.16
2022-08-25T01:25:39.058Z,18.14
2022-08-25T01:28:08.126Z,18.10
2022-08-25T01:30:37.143Z,18.09
2022-08-25T01:33:07.119Z,18.14
2022-08-25T01:35:36.441Z,18.13
2022-08-25T01:38:06.518Z,18.08
2022-08-25T01:40:36.181Z,18.07
2022-08-25T01:43:10.749Z,18.05
2022-08-25T01:45:41.658Z,18.14
2022-08-25T01:48:12.116Z,18.10
2022-08-25T01:50:41.900Z,18.07
2022-08-25T01:53:23.438Z,18.04
2022-08-25T01:55:52.186Z,18.00
2022-08-25T01:58:31.708Z,18.00
2022-08-25T02:01:02.457Z,17.98
2022-08-25T02:03:32.608Z,17.94
2022-08-25T02:06:01.547Z,17.89
2022-08-25T02:08:43.603Z,17.92
2022-08-25T02:11:14.660Z,17.92
2022-08-25T02:13:50.418Z,17.93
2022-08-25T02:16:20.776Z,17.90
2022-08-25T02:18:49.648Z,17.85
2022-08-25T02:21:18.454Z,17.82
2022-08-25T02:23:47.369Z,17.79
2022-08-25T02:26:18.011Z,17.72
2022-08-25T02:28:52.164Z,17.67
2022-08-25T02:31:22.853Z,17.67
2022-08-25T02:33:52.495Z,17.64
2022-08-25T02:36:23.409Z,17.61
2022-08-25T02:38:53.320Z,17.61
2022-08-25T02:41:25.215Z,17.61
2022-08-25T02:43:55.293Z,17.60
2022-08-25T02:46:25.026Z,17.59
2022-08-25T02:48:54.307Z,17.58
2022-08-25T02:51:25.996Z,17.64
2022-08-25T02:53:55.262Z,17.58
2022-08-25T02:56:25.861Z,17.55
2022-08-25T02:58:54.668Z,17.48
2022-08-25T03:01:28.553Z,17.46
2022-08-25T03:03:54.438Z,17.43
2022-08-25T03:06:24.209Z,17.40
2022-08-25T03:08:54.580Z,17.34
2022-08-25T03:11:26.664Z,17.50
2022-08-25T03:13:56.635Z,17.45
2022-08-25T03:16:27.949Z,17.40
2022-08-25T03:18:55.895Z,17.31
2022-08-25T03:21:24.815Z,17.27
2022-08-25T03:23:53.680Z,17.24
2022-08-25T03:26:41.322Z,17.40
2022-08-25T03:29:10.617Z,17.54
2022-08-25T03:31:39.609Z,17.36
2022-08-25T03:34:09.537Z,17.18
2022-08-25T03:36:39.348Z,17.17
2022-08-25T03:39:14.632Z,17.15
2022-08-25T03:41:44.308Z,17.05
2022-08-25T03:44:14.651Z,17.05
2022-08-25T03:46:49.362Z,17.04
2022-08-25T03:49:21.032Z,17.01
2022-08-25T03:51:51.134Z,17.00
2022-08-25T03:54:21.365Z,16.95
2022-08-25T03:56:50.108Z,16.91
2022-08-25T03:59:20.462Z,16.92
2022-08-25T04:01:54.533Z,16.90
2022-08-25T04:04:21.393Z,16.91
2022-08-25T04:06:50.211Z,16.89
2022-08-25T04:09:19.004Z,16.84
2022-08-25T04:11:49.261Z,16.85
2022-08-25T04:14:21.188Z,16.94
2022-08-25T04:16:51.524Z,16.99
2022-08-25T04:19:21.237Z,17.01
2022-08-25T04:21:50.346Z,17.05
2022-08-25T04:24:19.331Z,17.04
2022-08-25T04:26:49.805Z,17.02
2022-08-25T04:29:23.728Z,17.04
2022-08-25T04:31:52.937Z,17.07
2022-08-25T04:34:29.372Z,17.05
2022-08-25T04:36:54.089Z,17.14
2022-08-25T04:39:23.151Z,17.23
2022-08-25T04:41:52.048Z,17.20
2022-08-25T04:44:20.947Z,17.23
2022-08-25T04:46:50.735Z,17.23
2022-08-25T04:49:20.407Z,17.29
2022-08-25T04:51:49.228Z,17.45
2022-08-25T04:54:26.231Z,17.56
2022-08-25T04:56:58.652Z,17.67
2022-08-25T04:59:29.566Z,17.82
2022-08-25T05:01:58.446Z,17.92
2022-08-25T05:04:28.603Z,18.02
2022-08-25T05:06:58.377Z,18.07
2022-08-25T05:09:27.483Z,18.17
2022-08-25T05:11:56.878Z,18.24
2022-08-25T05:14:26.489Z,18.17
2022-08-25T05:16:56.391Z,18.35
2022-08-25T05:19:26.585Z,18.31
2022-08-25T05:21:57.949Z,18.39
2022-08-25T05:24:26.105Z,18.49
2022-08-25T05:26:55.009Z,18.64
2022-08-25T05:29:23.742Z,18.87
2022-08-25T05:31:53.476Z,19.09
2022-08-25T05:34:22.343Z,19.28
2022-08-25T05:36:51.648Z,19.38
2022-08-25T05:39:20.485Z,19.84
2022-08-25T05:41:49.228Z,19.84
2022-08-25T05:44:21.197Z,19.94
2022-08-25T05:46:48.406Z,20.15
2022-08-25T05:49:17.245Z,20.44
2022-08-25T05:51:46.048Z,20.45
2022-08-25T05:54:14.873Z,20.46
2022-08-25T05:56:46.516Z,20.43
2022-08-25T05:59:21.350Z,20.53
2022-08-25T06:02:08.038Z,20.49
2022-08-25T06:04:41.280Z,20.71
2022-08-25T06:07:14.082Z,20.64
2022-08-25T06:09:51.965Z,20.54
2022-08-25T06:12:21.820Z,20.66
2022-08-25T06:14:50.707Z,20.38
2022-08-25T06:17:19.447Z,20.50
2022-08-25T06:19:48.269Z,20.63
2022-08-25T06:22:17.046Z,20.69
2022-08-25T06:24:46.767Z,20.92
2022-08-25T06:27:15.889Z,20.83
2022-08-25T06:29:44.718Z,20.95
2022-08-25T06:32:14.245Z,21.09
2022-08-25T06:34:43.030Z,21.14
2022-08-25T06:37:11.829Z,21.02
2022-08-25T06:39:40.649Z,21.37
2022-08-25T06:42:11.357Z,21.61
2022-08-25T06:44:41.111Z,21.74
2022-08-25T06:47:17.920Z,21.67
2022-08-25T06:49:48.009Z,21.52
2022-08-25T06:52:17.703Z,21.46
2022-08-25T06:54:53.708Z,21.43
2022-08-25T06:57:22.438Z,21.42
2022-08-25T06:59:53.603Z,21.42
2022-08-25T07:02:35.452Z,21.43
2022-08-25T07:05:13.220Z,21.43
2022-08-25T07:07:44.050Z,21.34
2022-08-25T07:10:10.107Z,21.42
2022-08-25T07:12:40.594Z,21.33
2022-08-25T07:15:19.689Z,21.44
2022-08-25T07:17:42.184Z,21.41
2022-08-25T07:20:13.633Z,21.59
2022-08-25T07:22:42.893Z,21.41
2022-08-25T07:25:13.741Z,21.02
2022-08-25T07:27:44.298Z,21.36
2022-08-25T07:30:13.112Z,21.45
2022-08-25T07:32:43.140Z,21.33
2022-08-25T07:35:19.631Z,21.54
2022-08-25T07:37:51.093Z,21.84
2022-08-25T07:40:23.432Z,21.89
2022-08-25T07:42:59.725Z,21.78
2022-08-25T07:45:30.406Z,21.78
2022-08-25T07:48:02.652Z,21.79
2022-08-25T07:50:31.400Z,21.97
2022-08-25T07:53:00.696Z,22.04
2022-08-25T07:55:30.578Z,22.10
2022-08-25T07:58:03.147Z,22.22
2022-08-25T08:00:33.523Z,22.11
2022-08-25T08:03:05.450Z,22.36
2022-08-25T08:05:37.223Z,22.64
2022-08-25T08:08:07.268Z,22.74
2022-08-25T08:11:04.079Z,22.80
2022-08-25T08:13:07.649Z,22.85
2022-08-25T08:15:38.723Z,22.92
2022-08-25T08:18:07.489Z,22.83
2022-08-25T08:20:42.765Z,22.96
2022-08-25T08:23:08.093Z,22.95
2022-08-25T08:25:37.087Z,22.82
2022-08-25T08:28:07.226Z,22.65
2022-08-25T08:30:40.857Z,22.71
2022-08-25T08:33:12.402Z,22.71
2022-08-25T08:35:42.221Z,22.81
2022-08-25T08:38:17.390Z,22.74
2022-08-25T08:40:52.187Z,22.81
2022-08-25T08:43:25.080Z,22.98
2022-08-25T08:45:56.817Z,22.90
2022-08-25T08:48:28.463Z,23.11
2022-08-25T08:51:09.997Z,23.26
2022-08-25T08:53:39.592Z,23.45
2022-08-25T08:56:11.872Z,23.88
2022-08-25T08:58:45.240Z,24.33
2022-08-25T09:01:16.944Z,24.57
2022-08-25T09:03:47.618Z,24.47
2022-08-25T09:06:25.880Z,24.26
2022-08-25T09:08:56.082Z,24.54
2022-08-25T09:11:34.290Z,24.91
2022-08-25T09:14:08.406Z,25.11
2022-08-25T09:16:57.969Z,25.47
2022-08-25T09:19:28.898Z,25.49
2022-08-25T09:22:35.378Z,26.10
2022-08-25T09:24:59.864Z,25.66
2022-08-25T09:27:39.509Z,25.67
2022-08-25T09:30:10.742Z,25.65
2022-08-25T09:32:41.699Z,25.34
2022-08-25T09:35:13.583Z,25.42
2022-08-25T09:37:43.315Z,25.25
2022-08-25T09:40:14.173Z,25.67
2022-08-25T09:42:48.176Z,25.50
2022-08-25T09:45:19.029Z,26.15
2022-08-25T09:47:51.045Z,26.68
2022-08-25T09:50:21.058Z,27.03
2022-08-25T09:52:53.430Z,27.32
2022-08-25T09:55:21.672Z,26.92
2022-08-25T09:57:55.080Z,27.05
2022-08-25T10:00:25.403Z,27.19
2022-08-25T10:03:09.384Z,27.13
2022-08-25T10:05:51.999Z,27.01
2022-08-25T10:08:33.125Z,27.51
2022-08-25T10:11:04.488Z,27.45
2022-08-25T10:13:37.307Z,27.18
2022-08-25T10:16:20.567Z,26.87
2022-08-25T10:18:41.358Z,26.55
2022-08-25T10:21:13.039Z,26.34
2022-08-25T10:23:45.158Z,25.49
2022-08-25T10:26:34.808Z,26.16
2022-08-25T10:29:08.147Z,26.64
2022-08-25T10:31:41.375Z,27.02
2022-08-25T10:34:28.314Z,27.62
2022-08-25T10:36:58.842Z,28.01
2022-08-25T10:39:46.488Z,28.21
2022-08-25T10:42:25.832Z,28.39
2022-08-25T10:45:14.793Z,28.49
2022-08-25T10:47:52.140Z,28.72
2022-08-25T10:50:31.628Z,28.73
2022-08-25T10:53:18.375Z,28.25
2022-08-25T10:55:50.350Z,28.55
2022-08-25T10:58:26.497Z,28.94
2022-08-25T11:01:08.581Z,28.98
2022-08-25T11:03:43.892Z,29.12
2022-08-25T11:06:17.859Z,28.20
2022-08-25T11:08:54.747Z,28.89
2022-08-25T11:11:25.814Z,28.74
2022-08-25T11:13:56.059Z,29.15
2022-08-25T11:16:29.219Z,29.29
2022-08-25T11:18:59.729Z,29.31
2022-08-25T11:21:30.001Z,29.09
2022-08-25T11:24:00.327Z,28.97
2022-08-25T11:26:36.137Z,29.00
2022-08-25T11:29:16.589Z,29.10
2022-08-25T11:31:52.350Z,29.33
2022-08-25T11:34:20.645Z,29.12
2022-08-25T11:36:54.489Z,29.42
2022-08-25T11:39:42.949Z,29.10
2022-08-25T11:42:30.643Z,29.37
2022-08-25T11:45:17.341Z,29.26
2022-08-25T11:47:57.737Z,29.44
2022-08-25T11:50:37.285Z,29.65
2022-08-25T11:53:26.751Z,28.45
2022-08-25T11:55:54.059Z,29.56
2022-08-25T11:58:25.342Z,29.86
2022-08-25T12:00:56.993Z,29.96
2022-08-25T12:03:39.236Z,29.86
2022-08-25T12:06:12.951Z,29.91
2022-08-25T12:08:49.716Z,29.77
2022-08-25T12:11:37.473Z,29.84
2022-08-25T12:14:11.549Z,29.12
2022-08-25T12:16:41.983Z,29.33
2022-08-25T12:19:32.518Z,29.52
2022-08-25T12:22:06.974Z,29.66
2022-08-25T12:24:40.664Z,29.22
2022-08-25T12:27:33.411Z,29.01
2022-08-25T12:30:05.733Z,29.10
2022-08-25T12:32:52.958Z,29.25
2022-08-25T12:35:29.843Z,28.81
2022-08-25T12:38:04.807Z,28.41
2022-08-25T12:40:35.568Z,28.67
2022-08-25T12:43:19.657Z,29.01
2022-08-25T12:45:49.831Z,28.66
2022-08-25T12:48:31.332Z,28.52
2022-08-25T12:51:04.381Z,28.19
2022-08-25T12:53:38.574Z,28.53
2022-08-25T12:56:08.862Z,28.56
2022-08-25T12:59:00.816Z,28.21
2022-08-25T13:01:36.313Z,28.88
2022-08-25T13:04:04.399Z,29.25
2022-08-25T13:06:54.157Z,29.49
2022-08-25T13:09:35.822Z,29.72
2022-08-25T13:12:08.980Z,29.94
2022-08-25T13:14:39.671Z,29.44
2022-08-25T13:17:09.745Z,29.74
2022-08-25T13:19:41.957Z,29.93
2022-08-25T13:22:16.235Z,30.31
2022-08-25T13:24:43.749Z,30.18
2022-08-25T13:27:15.099Z,29.88
2022-08-25T13:29:56.033Z,30.33
2022-08-25T13:32:32.180Z,29.78
2022-08-25T13:35:09.934Z,30.15
2022-08-25T13:37:40.317Z,29.39
2022-08-25T13:40:12.874Z,29.03
2022-08-25T13:42:44.289Z,29.29
2022-08-25T13:45:32.029Z,29.45
2022-08-25T13:48:21.216Z,29.64
2022-08-25T13:53:50.332Z,30.01
2022-08-25T13:56:28.724Z,30.23
2022-08-25T13:58:58.760Z,30.09
2022-08-25T14:01:48.573Z,29.94
2022-08-25T14:04:01.210Z,29.87
2022-08-25T14:06:30.163Z,29.78
2022-08-25T14:09:01.431Z,30.03
2022-08-25T14:11:32.016Z,30.10
2022-08-25T14:14:02.993Z,30.17
2022-08-25T14:16:34.907Z,29.74
2022-08-25T14:19:04.756Z,29.16
2022-08-25T14:21:34.610Z,29.32
2022-08-25T14:24:03.523Z,29.09
2022-08-25T14:26:32.265Z,28.63
2022-08-25T14:29:08.180Z,28.71
2022-08-25T14:31:39.651Z,29.11
2022-08-25T14:34:09.984Z,29.21
2022-08-25T14:36:40.451Z,28.68
2022-08-25T14:39:09.683Z,28.84
2022-08-25T14:41:41.047Z,29.14
2022-08-25T14:44:10.797Z,28.96
2022-08-25T14:46:41.069Z,29.37
2022-08-25T14:49:11.909Z,29.44
2022-08-25T14:51:43.390Z,29.46
2022-08-25T14:54:14.802Z,28.55
2022-08-25T14:56:44.565Z,28.81
2022-08-25T14:59:13.433Z,29.21
2022-08-25T15:01:42.646Z,29.26
2022-08-25T15:04:13.291Z,29.35
2022-08-25T15:06:45.795Z,28.97
2022-08-25T15:09:16.459Z,28.68
2022-08-25T15:11:50.612Z,28.86
2022-08-25T15:14:28.755Z,28.74
2022-08-25T15:16:54.310Z,28.97
2022-08-25T15:19:24.582Z,29.17
2022-08-25T15:21:53.807Z,29.09
2022-08-25T15:24:25.685Z,29.16
2022-08-25T15:26:56.346Z,28.97
2022-08-25T15:29:30.331Z,28.56
2022-08-25T15:32:00.396Z,28.41
2022-08-25T15:34:30.299Z,28.45
2022-08-25T15:37:03.300Z,28.31
2022-08-25T15:39:32.053Z,28.15
2022-08-25T15:42:07.367Z,28.16
2022-08-25T15:44:37.116Z,28.22
2022-08-25T15:47:07.076Z,28.22
2022-08-25T15:49:58.378Z,28.10
2022-08-25T15:52:44.413Z,28.09
2022-08-25T15:54:58.875Z,27.90
2022-08-25T15:57:27.607Z,27.92
2022-08-25T15:59:57.313Z,28.05
2022-08-25T16:02:27.579Z,27.67
2022-08-25T16:04:56.502Z,27.96
2022-08-25T16:07:25.220Z,28.02
2022-08-25T16:09:55.451Z,27.89
2022-08-25T16:12:25.461Z,27.88
2022-08-25T16:14:56.163Z,27.59
2022-08-25T16:17:24.995Z,27.63
2022-08-25T16:19:53.736Z,27.49
2022-08-25T16:22:22.526Z,27.44
2022-08-25T16:24:51.665Z,27.33
2022-08-25T16:27:21.122Z,27.32
2022-08-25T16:29:50.108Z,27.50
2022-08-25T16:32:19.205Z,27.41
2022-08-25T16:34:47.944Z,27.28
2022-08-25T16:37:16.786Z,27.34
2022-08-25T16:39:46.084Z,27.14
2022-08-25T16:42:15.253Z,27.17
2022-08-25T16:44:44.672Z,27.22
2022-08-25T16:47:14.506Z,27.28
2022-08-25T16:49:45.505Z,27.24
2022-08-25T16:52:33.282Z,27.24
2022-08-25T16:55:13.770Z,27.09
2022-08-25T16:57:47.801Z,27.03
2022-08-25T17:00:18.253Z,27.03
2022-08-25T17:02:48.701Z,26.93
2022-08-25T17:05:18.227Z,26.96
2022-08-25T17:07:49.783Z,26.83
2022-08-25T17:10:18.542Z,26.82
2022-08-25T17:12:47.352Z,26.79
2022-08-25T17:15:17.739Z,26.72
2022-08-25T17:17:48.163Z,26.58
2022-08-25T17:20:16.968Z,26.50
2022-08-25T17:22:46.053Z,26.44
2022-08-25T17:25:14.842Z,26.37
2022-08-25T17:27:43.790Z,26.25
2022-08-25T17:30:12.968Z,26.29
2022-08-25T17:32:42.337Z,26.22
2022-08-25T17:35:14.191Z,26.10
2022-08-25T17:37:43.087Z,26.00
2022-08-25T17:40:12.344Z,25.92
2022-08-25T17:42:41.155Z,25.81
2022-08-25T17:45:10.083Z,25.71
2022-08-25T17:47:38.758Z,25.64
2022-08-25T17:50:07.804Z,25.60
2022-08-25T17:52:36.543Z,25.45
2022-08-25T17:55:05.849Z,25.18
2022-08-25T17:57:36.199Z,25.17
2022-08-25T18:00:12.603Z,25.08
2022-08-25T18:02:43.275Z,24.98
2022-08-25T18:05:13.075Z,24.85
2022-08-25T18:07:42.580Z,24.75
2022-08-25T18:10:12.641Z,24.70
2022-08-25T18:12:41.328Z,24.52
2022-08-25T18:15:12.214Z,24.43
2022-08-25T18:17:42.736Z,24.34
2022-08-25T18:20:13.938Z,24.30
2022-08-25T18:22:44.084Z,24.19
2022-08-25T18:25:14.431Z,24.12
2022-08-25T18:27:43.156Z,24.05
2022-08-25T18:30:12.219Z,23.91
2022-08-25T18:32:40.951Z,23.90
2022-08-25T18:35:10.532Z,24.08
2022-08-25T18:37:57.161Z,23.88
2022-08-25T18:40:26.075Z,23.72
2022-08-25T18:42:55.927Z,23.61
2022-08-25T18:45:26.397Z,23.56
2022-08-25T18:47:58.235Z,23.52
2022-08-25T18:50:29.445Z,23.50
2022-08-25T18:52:59.417Z,23.44
2022-08-25T18:55:28.411Z,23.39
2022-08-25T18:57:57.714Z,23.38
2022-08-25T19:00:27.605Z,23.35
2022-08-25T19:02:57.441Z,23.35
2022-08-25T19:05:27.850Z,23.30
2022-08-25T19:07:57.388Z,23.27
2022-08-25T19:10:26.472Z,23.22
2022-08-25T19:12:56.877Z,23.18
2022-08-25T19:15:26.407Z,23.13
2022-08-25T19:17:56.179Z,23.12
2022-08-25T19:20:25.992Z,23.07
2022-08-25T19:22:54.832Z,23.10
2022-08-25T19:25:23.749Z,22.84
2022-08-25T19:27:53.223Z,22.81
2022-08-25T19:30:23.447Z,22.78
2022-08-25T19:32:53.639Z,22.99
2022-08-25T19:35:25.328Z,22.88
2022-08-25T19:37:55.563Z,22.76
2022-08-25T19:40:25.409Z,22.79
2022-08-25T19:42:55.735Z,22.75
2022-08-25T19:45:24.551Z,22.75
2022-08-25T19:47:53.406Z,22.67
2022-08-25T19:50:23.073Z,22.54
2022-08-25T19:52:52.362Z,22.55
2022-08-25T19:55:22.072Z,22.47
2022-08-25T19:57:52.052Z,22.51
2022-08-25T20:00:23.661Z,22.47
2022-08-25T20:02:53.222Z,22.43
2022-08-25T20:05:23.573Z,22.33
2022-08-25T20:07:54.294Z,22.31
2022-08-25T20:10:23.913Z,22.44
2022-08-25T20:12:52.796Z,22.31
2022-08-25T20:15:21.932Z,22.48
2022-08-25T20:17:56.608Z,22.34
2022-08-25T20:20:23.064Z,22.13
2022-08-25T20:22:51.882Z,22.15
2022-08-25T20:25:24.255Z,22.18
2022-08-25T20:27:55.112Z,22.24
2022-08-25T20:30:25.527Z,22.23
2022-08-25T20:32:55.706Z,22.11
2022-08-25T20:35:26.582Z,21.93
2022-08-25T20:37:56.682Z,21.88
2022-08-25T20:40:26.565Z,21.83
2022-08-25T20:42:56.431Z,21.79
2022-08-25T20:45:25.199Z,21.76
2022-08-25T20:47:53.944Z,21.68
2022-08-25T20:50:24.312Z,21.67
2022-08-25T20:52:57.757Z,21.63
2022-08-25T20:55:27.751Z,21.63
2022-08-25T20:57:57.187Z,21.58
2022-08-25T21:00:25.970Z,21.53
2022-08-25T21:02:55.255Z,21.64
2022-08-25T21:05:24.022Z,21.88
2022-08-25T21:07:53.125Z,21.92
2022-08-25T21:10:21.881Z,21.59
2022-08-25T21:12:53.388Z,21.47
2022-08-25T21:15:21.318Z,21.35
2022-08-25T21:17:51.355Z,21.20
2022-08-25T21:20:24.203Z,21.23
2022-08-25T21:22:53.336Z,21.15
2022-08-25T21:25:22.840Z,21.13
2022-08-25T21:27:51.836Z,21.13
2022-08-25T21:30:20.635Z,21.10
2022-08-25T21:32:53.887Z,21.08
2022-08-25T21:35:24.673Z,20.95
2022-08-25T21:37:53.950Z,20.95
2022-08-25T21:40:23.387Z,20.94
2022-08-25T21:42:52.615Z,20.79
2022-08-25T21:45:21.872Z,20.85
2022-08-25T21:47:51.780Z,20.87
2022-08-25T21:50:21.451Z,20.83
2022-08-25T21:52:54.567Z,20.88
2022-08-25T21:55:21.282Z,20.83
2022-08-25T21:57:51.375Z,20.78
2022-08-25T22:00:21.368Z,20.76
2022-08-25T22:02:50.659Z,20.68
2022-08-25T22:05:19.541Z,20.69
2022-08-25T22:07:49.009Z,20.64
2022-08-25T22:10:18.272Z,20.63
2022-08-25T22:12:48.007Z,20.61
2022-08-25T22:15:17.889Z,20.61
2022-08-25T22:17:47.941Z,20.59
2022-08-25T22:20:17.886Z,20.52
2022-08-25T22:22:46.599Z,20.48
2022-08-25T22:25:15.448Z,20.44
2022-08-25T22:27:44.172Z,20.41
2022-08-25T22:30:16.687Z,20.33
2022-08-25T22:32:46.726Z,20.32
2022-08-25T22:35:16.484Z,20.30
2022-08-25T22:37:47.889Z,20.26
2022-08-25T22:40:17.654Z,20.23
2022-08-25T22:42:48.234Z,20.18
2022-08-25T22:45:17.469Z,20.17
2022-08-25T22:47:46.625Z,20.12
2022-08-25T22:50:17.311Z,20.06
2022-08-25T22:52:47.259Z,20.07
2022-08-25T22:55:16.852Z,20.07
2022-08-25T22:57:45.629Z,19.97
2022-08-25T23:00:15.557Z,19.94
2022-08-25T23:02:45.289Z,19.94
2022-08-25T23:05:15.223Z,19.90
2022-08-25T23:07:44.072Z,19.82
2022-08-25T23:10:13.350Z,19.75
2022-08-25T23:12:42.679Z,19.72
2022-08-25T23:15:13.140Z,19.70
2022-08-25T23:17:42.863Z,19.66
2022-08-25T23:23:41.089Z,19.43
2022-08-25T23:26:11.068Z,19.48
2022-08-25T23:28:42.262Z,19.42
2022-08-25T23:31:12.546Z,19.41
2022-08-25T23:33:41.428Z,19.41
2022-08-25T23:36:11.888Z,19.40
2022-08-25T23:38:42.286Z,19.39
2022-08-25T23:41:14.492Z,19.36
2022-08-25T23:43:43.587Z,19.39
2022-08-25T23:49:41.235Z,19.31
2022-08-25T23:52:10.064Z,19.23
2022-08-25T23:54:39.420Z,19.21
2022-08-25T23:57:08.818Z,19.20
2022-08-25T23:59:38.341Z,19.17
